Athelstane, WI

6:40 PM CST on December 19, 2014 (GMT -0600)
Athelstane Township | Change Station
CLOSE
Current Station
Personal Weather Station
Location: Athelstane, WI
Elevation: 966 ft
Nearby Weather Stations

Elev 966 ft 45.40 °N, 88.12 °W | Updated 0 second ago

Clear
Clear
16.3 °F
Feels Like 16 °F
N
0.0
Wind Variable Wind from SSE
Gusts 0.0 mph

Today
High -- | Low -- °F
--% Chance of Precip.
Yesterday
High -- | Low -- °F
Precip. -- in
7:28 AM 4:11 PM
Waning Crescent, 5% visible
Pressure 30.24 in
Visibility 1.0 miles
Clouds Clear
Windchill 16 °F
Dew Point 9 °F
Humidity 71%
Rainfall 0.00 in
Snow Depth Not available.
UV 0 out of 12
Pollen .10 out of 12
Air Quality Not available.
Flu Activity Not available.
SPECI KIMT 200025Z AUTO 00000KT 1SM BR CLR M12/M13 A3024 RMK AO2 I1000 T11171133

More Conditions Fewer Conditions

Pressure 30.24 in
Visibility 1.0 miles
Clouds Clear
Windchill 16 °F
Dew Point 9 °F
Humidity 71%
Rainfall 0.00 in
Snow Depth Not available.
UV 0 out of 12
Pollen .10 out of 12
Air Quality Not available.
Flu Activity Not available.
SPECI KIMT 200025Z AUTO 00000KT 1SM BR CLR M12/M13 A3024 RMK AO2 I1000 T11171133

More Conditions Fewer Conditions

10-Day Weather Forecast

Almanac

Astronomy

Dec. 19, 2014 Rise Set
Actual Time
Civil Twilight
Nautical Twilight
Astronomical Twilight
Moon
Length of Visible Light
Length of Day
Tomorrow will be .
, % of the Moon is Illuminated

Today's Extremes

State Highs State Lows

Community

WunderPhotos

Upload Photos

1,779,093 photos uploaded!

WunderBlogs® & News

Nearby

Air Quality

  Air Quality AQ Index Pollutant
Not available.

Snow Depth

Station Depth Elevation

Earthquake Activity

City Distance Mag. Time & Date
Minimum magnitude displayed is 2.5.

Coastal Water Temperatures

Place Temperature

Nearby Weather Stations